createdAt,value
2019-03-31T00:00:48.305Z,100142.08
2019-03-31T00:03:20.219Z,100151.92
2019-03-31T00:05:52.598Z,100142.59
2019-03-31T00:08:23.669Z,100143.77
2019-03-31T00:10:54.692Z,100141.19
2019-03-31T00:13:25.865Z,100142.25
2019-03-31T00:15:56.819Z,100136.33
2019-03-31T00:18:27.943Z,100137.73
2019-03-31T00:20:59.023Z,100139.20
2019-03-31T00:23:30.086Z,100142.91
2019-03-31T00:26:01.033Z,100136.70
2019-03-31T00:28:32.069Z,100141.39
2019-03-31T00:31:03.051Z,100143.59
2019-03-31T00:33:33.951Z,100141.29
2019-03-31T00:36:04.934Z,100137.77
2019-03-31T00:38:35.908Z,100132.04
2019-03-31T00:41:06.808Z,100138.45
2019-03-31T00:43:37.922Z,100128.16
2019-03-31T00:46:08.885Z,100136.38
2019-03-31T00:48:39.987Z,100138.80
2019-03-31T00:51:11.107Z,100138.30
2019-03-31T00:53:42.093Z,100126.13
2019-03-31T00:56:13.291Z,100128.00
2019-03-31T00:58:44.256Z,100133.95
2019-03-31T01:01:37.207Z,100142.45
2019-03-31T01:04:08.808Z,100141.97
2019-03-31T01:06:40.311Z,100134.28
2019-03-31T01:09:27.629Z,100142.06
2019-03-31T01:11:58.967Z,100140.45
2019-03-31T01:14:30.550Z,100144.56
2019-03-31T01:17:01.967Z,100141.04
2019-03-31T01:19:33.598Z,100140.28
2019-03-31T01:22:04.721Z,100136.28
2019-03-31T01:24:35.698Z,100140.45
2019-03-31T01:27:09.782Z,100141.21
2019-03-31T01:29:41.267Z,100142.55
2019-03-31T01:32:12.429Z,100139.30
2019-03-31T01:34:43.424Z,100141.31
2019-03-31T01:37:14.416Z,100147.79
2019-03-31T01:39:45.611Z,100141.31
2019-03-31T01:42:16.558Z,100141.02
2019-03-31T01:44:47.469Z,100147.69
2019-03-31T01:47:18.535Z,100145.59
2019-03-31T01:49:49.448Z,100146.06
2019-03-31T01:52:20.445Z,100142.16
2019-03-31T01:54:51.409Z,100152.51
2019-03-31T01:57:22.344Z,100145.73
2019-03-31T01:59:53.441Z,100150.30
2019-03-31T02:02:28.916Z,100147.06
2019-03-31T02:04:59.898Z,100152.97
2019-03-31T02:07:31.028Z,100150.39
2019-03-31T02:10:02.055Z,100153.44
2019-03-31T02:12:34.262Z,100151.91
2019-03-31T02:15:06.158Z,100159.80
2019-03-31T02:17:37.272Z,100154.00
2019-03-31T02:20:08.358Z,100024.86
2019-03-31T02:22:39.517Z,100163.70
2019-03-31T02:25:10.409Z,100159.98
2019-03-31T02:27:41.377Z,100155.92
2019-03-31T02:30:12.890Z,100154.39
2019-03-31T02:32:43.889Z,100155.13
2019-03-31T02:35:15.005Z,100157.80
2019-03-31T02:37:46.064Z,100163.52
2019-03-31T02:40:17.032Z,100151.56
2019-03-31T02:42:47.998Z,100161.30
2019-03-31T02:45:19.066Z,100165.00
2019-03-31T02:47:50.284Z,100162.63
2019-03-31T02:50:50.486Z,100164.11
2019-03-31T02:53:21.851Z,100167.19
2019-03-31T02:55:53.831Z,100166.66
2019-03-31T02:58:25.521Z,100162.36
2019-03-31T03:00:56.831Z,100172.63
2019-03-31T03:03:28.186Z,100174.34
2019-03-31T03:06:01.476Z,100169.88
2019-03-31T03:08:34.285Z,100178.19
2019-03-31T03:11:06.151Z,100182.04
2019-03-31T03:13:38.998Z,100177.67
2019-03-31T03:16:20.592Z,100190.52
2019-03-31T03:18:52.028Z,100183.04
2019-03-31T03:21:24.657Z,100185.49
2019-03-31T03:23:55.781Z,100185.19
2019-03-31T03:26:26.737Z,100187.00
2019-03-31T03:28:57.751Z,100187.73
2019-03-31T03:31:28.974Z,100187.43
2019-03-31T03:34:00.351Z,100183.82
2019-03-31T03:36:31.346Z,100182.84
2019-03-31T03:39:02.462Z,100184.17
2019-03-31T03:41:33.458Z,100179.70
2019-03-31T03:44:04.507Z,100187.47
2019-03-31T03:46:35.503Z,100176.05
2019-03-31T03:49:06.627Z,100171.59
2019-03-31T03:51:37.567Z,100177.95
2019-03-31T03:54:09.797Z,100179.88
2019-03-31T03:56:41.048Z,100175.59
2019-03-31T03:59:12.025Z,100172.33
2019-03-31T04:01:42.992Z,100178.77
2019-03-31T04:04:13.951Z,100182.37
2019-03-31T04:06:45.043Z,100186.27
2019-03-31T04:09:16.051Z,100185.80
2019-03-31T04:11:47.048Z,100192.84
2019-03-31T04:14:18.074Z,100186.58
2019-03-31T04:16:49.189Z,100194.69
2019-03-31T04:19:20.143Z,100198.60
2019-03-31T04:21:51.061Z,100196.20
2019-03-31T04:24:22.102Z,100199.24
2019-03-31T04:26:53.055Z,100199.20
2019-03-31T04:29:24.000Z,100195.67
2019-03-31T04:31:54.873Z,100208.12
2019-03-31T04:34:25.746Z,100207.48
2019-03-31T04:36:56.755Z,100207.65
2019-03-31T04:39:27.701Z,100210.14
2019-03-31T04:41:58.610Z,100210.36
2019-03-31T04:44:29.573Z,100201.60
2019-03-31T04:47:00.652Z,100207.09
2019-03-31T04:49:31.448Z,100214.94
2019-03-31T04:52:03.244Z,100218.23
2019-03-31T04:54:34.247Z,100222.23
2019-03-31T04:57:05.209Z,100226.27
2019-03-31T04:59:36.181Z,100232.12
2019-03-31T05:02:07.171Z,100233.45
2019-03-31T05:04:39.368Z,100235.52
2019-03-31T05:07:10.378Z,100241.58
2019-03-31T05:09:41.349Z,100242.09
2019-03-31T05:12:12.336Z,100237.36
2019-03-31T05:14:43.256Z,100252.85
2019-03-31T05:17:14.233Z,100247.30
2019-03-31T05:19:45.278Z,100254.50
2019-03-31T05:22:16.182Z,100265.78
2019-03-31T05:24:47.216Z,100263.86
2019-03-31T05:27:18.230Z,100263.52
2019-03-31T05:29:49.135Z,100268.20
2019-03-31T05:32:20.043Z,100272.27
2019-03-31T05:34:51.001Z,100265.25
2019-03-31T05:37:21.924Z,100267.89
2019-03-31T05:39:56.556Z,100273.25
2019-03-31T05:42:28.846Z,100283.94
2019-03-31T05:44:59.773Z,100293.12
2019-03-31T05:47:30.868Z,100300.75
2019-03-31T05:50:01.852Z,100300.50
2019-03-31T05:52:32.829Z,100305.64
2019-03-31T05:55:03.699Z,100315.47
2019-03-31T05:57:34.751Z,100317.77
2019-03-31T06:00:06.692Z,100322.44
2019-03-31T06:02:37.632Z,100330.91
2019-03-31T06:05:08.573Z,100336.75
2019-03-31T06:07:39.583Z,100337.02
2019-03-31T06:10:10.657Z,100338.08
2019-03-31T06:12:42.813Z,100345.81
2019-03-31T06:15:13.876Z,100348.08
2019-03-31T06:17:45.056Z,100343.41
2019-03-31T06:20:15.983Z,100351.56
2019-03-31T06:22:46.942Z,100355.20
2019-03-31T06:25:18.030Z,100359.31
2019-03-31T06:27:49.947Z,100359.20
2019-03-31T06:30:20.929Z,100360.77
2019-03-31T06:32:55.335Z,100366.98
2019-03-31T06:35:25.671Z,100370.23
2019-03-31T06:37:56.646Z,100372.16
2019-03-31T06:40:27.605Z,100379.33
2019-03-31T06:42:58.961Z,100381.80
2019-03-31T06:45:29.942Z,100384.03
2019-03-31T06:48:01.001Z,100386.80
2019-03-31T06:50:31.947Z,100393.03
2019-03-31T06:53:03.131Z,100405.39
2019-03-31T06:55:34.170Z,100408.62
2019-03-31T06:58:05.173Z,100419.22
2019-03-31T07:00:36.186Z,100427.05
2019-03-31T07:03:07.242Z,100436.45
2019-03-31T07:05:38.578Z,100448.17
2019-03-31T07:08:09.708Z,100464.43
2019-03-31T07:10:40.733Z,100459.53
2019-03-31T07:13:11.718Z,100480.53
2019-03-31T07:15:42.811Z,100486.50
2019-03-31T07:18:15.974Z,100501.61
2019-03-31T07:20:46.412Z,100501.88
2019-03-31T07:23:17.574Z,100507.07
2019-03-31T07:25:48.498Z,100516.33
2019-03-31T07:28:19.467Z,100523.67
2019-03-31T07:30:50.600Z,100538.34
2019-03-31T07:33:21.632Z,100552.68
2019-03-31T07:35:53.735Z,100556.11
2019-03-31T07:38:38.014Z,100574.87
2019-03-31T07:41:11.680Z,100590.36
2019-03-31T07:43:30.273Z,100591.53
2019-03-31T07:46:01.300Z,100607.26
2019-03-31T07:48:32.259Z,100611.13
2019-03-31T07:51:03.671Z,100625.27
2019-03-31T07:53:34.808Z,100632.45
2019-03-31T07:56:06.217Z,100662.55
2019-03-31T07:58:37.115Z,100665.83
2019-03-31T08:01:08.340Z,100675.97
2019-03-31T08:03:39.247Z,100682.41
2019-03-31T08:06:10.064Z,100676.64
2019-03-31T08:08:41.138Z,100689.97
2019-03-31T08:11:12.477Z,100695.50
2019-03-31T08:13:43.327Z,100713.47
2019-03-31T08:16:14.223Z,100718.00
2019-03-31T08:18:45.165Z,100734.34
2019-03-31T08:21:17.049Z,100754.22
2019-03-31T08:23:47.898Z,100754.78
2019-03-31T08:26:18.899Z,100779.21
2019-03-31T08:28:49.703Z,100796.11
2019-03-31T08:31:20.735Z,100789.70
2019-03-31T08:33:51.749Z,100794.64
2019-03-31T08:36:22.761Z,100804.92
2019-03-31T08:38:53.786Z,100812.20
2019-03-31T08:41:24.916Z,100818.98
2019-03-31T08:43:56.085Z,100830.65
2019-03-31T08:46:27.299Z,100824.48
2019-03-31T08:48:58.644Z,100842.03
2019-03-31T08:51:29.762Z,100848.14
2019-03-31T08:54:01.973Z,100853.16
2019-03-31T08:56:32.884Z,100863.19
2019-03-31T08:59:04.147Z,100868.38
2019-03-31T09:01:35.612Z,100866.61
2019-03-31T09:04:07.077Z,100878.24
2019-03-31T09:06:38.685Z,100893.86
2019-03-31T09:09:10.918Z,100898.64
2019-03-31T09:11:42.908Z,100908.09
2019-03-31T09:14:14.472Z,100910.95
2019-03-31T09:16:45.709Z,100919.20
2019-03-31T09:19:18.419Z,100912.89
2019-03-31T09:21:49.687Z,100921.46
2019-03-31T09:24:20.557Z,100929.64
2019-03-31T09:26:51.640Z,100930.28
2019-03-31T09:29:22.642Z,100943.12
2019-03-31T09:31:53.724Z,100944.91
2019-03-31T09:34:24.828Z,100942.19
2019-03-31T09:36:55.745Z,100941.41
2019-03-31T09:39:26.745Z,100963.69
2019-03-31T09:41:58.124Z,100963.56
2019-03-31T09:44:30.393Z,100969.30
2019-03-31T09:47:01.611Z,100981.78
2019-03-31T09:49:32.908Z,100982.38
2019-03-31T09:52:04.544Z,100987.17
2019-03-31T09:54:36.546Z,100981.98
2019-03-31T09:57:07.868Z,100958.52
2019-03-31T09:59:38.836Z,100993.00
2019-03-31T10:02:10.248Z,101002.63
2019-03-31T10:04:41.334Z,101004.52
2019-03-31T10:07:12.299Z,101015.05
2019-03-31T10:09:44.678Z,101018.90
2019-03-31T10:12:15.569Z,101019.69
2019-03-31T10:14:46.595Z,101021.56
2019-03-31T10:17:17.626Z,101028.27
2019-03-31T10:19:51.492Z,101023.55
2019-03-31T10:22:24.619Z,101030.08
2019-03-31T10:24:56.160Z,101027.77
2019-03-31T10:27:27.686Z,101028.45
2019-03-31T10:29:58.703Z,101029.97
2019-03-31T10:32:29.623Z,101037.98
2019-03-31T10:35:00.900Z,101031.95
2019-03-31T10:37:31.814Z,101045.81
2019-03-31T10:40:03.754Z,101051.11
2019-03-31T10:42:35.945Z,101055.09
2019-03-31T10:45:08.397Z,101062.55
2019-03-31T10:47:39.372Z,101066.55
2019-03-31T10:50:11.201Z,101071.27
2019-03-31T10:52:42.283Z,101083.22
2019-03-31T10:55:15.320Z,101077.83
2019-03-31T10:57:46.511Z,101086.36
2019-03-31T11:00:20.803Z,101081.20
2019-03-31T11:02:51.773Z,101085.05
2019-03-31T11:05:22.937Z,101088.36
2019-03-31T11:07:53.892Z,101094.14
2019-03-31T11:10:25.079Z,101107.25
2019-03-31T11:12:56.118Z,101111.80
2019-03-31T11:15:27.126Z,101119.59
2019-03-31T11:17:58.214Z,101115.74
2019-03-31T11:20:29.326Z,101104.08
2019-03-31T11:23:05.263Z,101103.44
2019-03-31T11:25:36.592Z,101113.29
2019-03-31T11:28:07.509Z,101121.06
2019-03-31T11:30:38.428Z,101126.98
2019-03-31T11:33:09.418Z,101147.20
2019-03-31T11:35:40.365Z,101147.67
2019-03-31T11:38:11.378Z,101145.81
2019-03-31T11:40:42.532Z,101136.64
2019-03-31T11:43:13.537Z,101141.97
2019-03-31T11:45:44.607Z,101153.74
2019-03-31T11:48:15.760Z,101168.16
2019-03-31T11:50:48.508Z,101177.53
2019-03-31T11:53:19.605Z,101170.16
2019-03-31T11:55:51.590Z,101162.69
2019-03-31T11:58:23.250Z,101171.22
2019-03-31T12:00:56.600Z,101162.08
2019-03-31T12:03:30.968Z,101169.26
2019-03-31T12:06:00.664Z,101170.33
2019-03-31T12:08:31.750Z,101174.17
2019-03-31T12:11:03.385Z,101180.84
2019-03-31T12:13:34.458Z,101185.08
2019-03-31T12:16:05.485Z,101187.17
2019-03-31T12:18:36.520Z,101185.67
2019-03-31T12:21:07.538Z,101182.27
2019-03-31T12:23:38.562Z,101179.76
2019-03-31T12:26:09.518Z,101194.69
2019-03-31T12:28:40.542Z,101201.27
2019-03-31T12:31:11.466Z,101196.96
2019-03-31T12:33:42.493Z,101194.66
2019-03-31T12:36:13.604Z,101212.49
2019-03-31T12:38:44.772Z,101208.02
2019-03-31T12:41:15.765Z,101213.73
2019-03-31T12:43:47.929Z,101192.28
2019-03-31T12:46:19.053Z,101217.45
2019-03-31T12:48:50.159Z,101214.86
2019-03-31T12:51:22.506Z,101202.59
2019-03-31T12:53:53.582Z,101208.20
2019-03-31T12:56:24.882Z,101215.80
2019-03-31T12:58:55.972Z,101217.69
2019-03-31T13:01:26.975Z,101219.16
2019-03-31T13:03:57.913Z,101208.50
2019-03-31T13:06:28.847Z,101238.95
2019-03-31T13:08:59.893Z,101227.39
2019-03-31T13:11:31.070Z,101228.99
2019-03-31T13:14:02.048Z,101238.39
2019-03-31T13:16:33.150Z,101234.38
2019-03-31T13:19:04.260Z,101244.02
2019-03-31T13:21:35.232Z,101247.00
2019-03-31T13:24:06.407Z,101244.66
2019-03-31T13:26:37.369Z,101242.12
2019-03-31T13:29:08.479Z,101244.03
2019-03-31T13:31:39.400Z,101245.55
2019-03-31T13:34:10.426Z,101256.43
2019-03-31T13:36:41.311Z,101250.25
2019-03-31T13:39:12.775Z,101252.88
2019-03-31T13:41:47.035Z,101255.22
2019-03-31T13:44:16.739Z,101259.97
2019-03-31T13:46:48.265Z,101262.54
2019-03-31T13:49:19.578Z,101270.72
2019-03-31T13:51:51.081Z,101274.47
2019-03-31T13:54:22.379Z,101284.91
2019-03-31T13:56:54.351Z,101286.08
2019-03-31T13:59:26.102Z,101286.35
2019-03-31T14:02:00.019Z,101283.20
2019-03-31T14:04:30.543Z,101294.27
2019-03-31T14:07:04.407Z,101288.84
2019-03-31T14:09:34.552Z,101292.36
2019-03-31T14:12:07.355Z,101290.94
2019-03-31T14:14:38.709Z,101291.50
2019-03-31T14:17:10.036Z,101296.54
2019-03-31T14:19:41.401Z,101294.13
2019-03-31T14:22:13.666Z,101296.70
2019-03-31T14:24:47.119Z,101302.33
2019-03-31T14:27:18.256Z,101295.63
2019-03-31T14:29:49.503Z,101299.09
2019-03-31T14:32:20.754Z,101310.08
2019-03-31T14:34:52.316Z,101311.26
2019-03-31T14:37:23.716Z,101314.72
2019-03-31T14:39:54.841Z,101307.95
2019-03-31T14:42:26.212Z,101302.63
2019-03-31T14:44:57.235Z,101322.31
2019-03-31T14:47:28.392Z,101323.26
2019-03-31T14:49:59.879Z,101316.48
2019-03-31T14:52:31.203Z,101327.52
2019-03-31T14:55:02.613Z,101326.02
2019-03-31T14:57:33.750Z,101328.85
2019-03-31T15:00:14.469Z,101335.31
2019-03-31T15:02:38.866Z,101333.97
2019-03-31T15:05:10.248Z,101343.91
2019-03-31T15:07:41.281Z,101345.70
2019-03-31T15:10:12.528Z,101336.59
2019-03-31T15:12:44.079Z,101345.09
2019-03-31T15:15:15.464Z,101351.31
2019-03-31T15:17:46.840Z,101348.23
2019-03-31T15:20:19.610Z,101359.27
2019-03-31T15:22:51.990Z,101357.85
2019-03-31T15:25:23.383Z,101354.47
2019-03-31T15:27:55.623Z,101363.59
2019-03-31T15:30:27.324Z,101363.28
2019-03-31T15:32:58.649Z,101370.61
2019-03-31T15:35:29.894Z,101378.48
2019-03-31T15:38:01.395Z,101379.50
2019-03-31T15:40:32.706Z,101380.05
2019-03-31T15:43:04.697Z,101388.47
2019-03-31T15:45:36.222Z,101391.08
2019-03-31T15:48:07.696Z,101392.33
2019-03-31T15:50:39.195Z,101391.53
2019-03-31T15:53:10.353Z,101398.81
2019-03-31T15:55:41.804Z,101396.75
2019-03-31T15:58:13.276Z,101399.74
2019-03-31T16:00:44.788Z,101403.91
2019-03-31T16:03:18.505Z,101408.62
2019-03-31T16:05:51.215Z,101411.92
2019-03-31T16:08:21.879Z,101412.11
2019-03-31T16:10:52.432Z,101420.39
2019-03-31T16:13:24.596Z,101414.25
2019-03-31T16:15:55.332Z,101417.47
2019-03-31T16:18:25.698Z,101422.10
2019-03-31T16:20:57.029Z,101430.60
2019-03-31T16:23:28.368Z,101430.02
2019-03-31T16:25:59.563Z,101437.55
2019-03-31T16:28:30.228Z,101435.59
2019-03-31T16:31:01.781Z,101437.21
2019-03-31T16:33:32.813Z,101440.03
2019-03-31T16:36:03.722Z,101442.84
2019-03-31T16:38:34.667Z,101447.75
2019-03-31T16:41:05.718Z,101448.69
2019-03-31T16:43:36.653Z,101446.95
2019-03-31T16:46:08.337Z,101452.83
2019-03-31T16:48:38.939Z,101450.07
2019-03-31T16:51:09.617Z,101460.44
2019-03-31T16:53:40.319Z,101455.70
2019-03-31T16:56:11.011Z,101462.45
2019-03-31T16:58:42.026Z,101467.52
2019-03-31T17:01:12.573Z,101469.00
2019-03-31T17:03:44.218Z,101474.55
2019-03-31T17:06:15.373Z,101483.99
2019-03-31T17:08:46.051Z,101488.46
2019-03-31T17:11:18.326Z,101491.52
2019-03-31T17:13:50.825Z,101494.28
2019-03-31T17:16:24.448Z,101500.69
2019-03-31T17:18:55.515Z,101512.16
2019-03-31T17:21:26.689Z,101514.20
2019-03-31T17:23:57.893Z,101512.03
2019-03-31T17:26:28.742Z,101506.70
2019-03-31T17:29:02.310Z,101509.67
2019-03-31T17:31:33.617Z,101520.58
2019-03-31T17:34:04.298Z,101523.11
2019-03-31T17:36:36.008Z,101522.20
2019-03-31T17:39:08.370Z,101529.03
2019-03-31T17:41:38.772Z,101531.19
2019-03-31T17:44:09.768Z,101536.11
2019-03-31T17:46:40.581Z,101535.59
2019-03-31T17:49:11.579Z,101545.27
2019-03-31T17:51:42.445Z,101561.47
2019-03-31T17:54:13.399Z,101569.86
2019-03-31T17:56:44.197Z,101572.23
2019-03-31T17:59:15.039Z,101576.45
2019-03-31T18:01:46.209Z,101574.66
2019-03-31T18:04:17.493Z,101582.32
2019-03-31T18:06:50.733Z,101584.23
2019-03-31T18:09:22.031Z,101584.36
2019-03-31T18:11:53.078Z,101589.49
2019-03-31T18:14:24.133Z,101600.77
2019-03-31T18:16:54.907Z,101598.84
2019-03-31T18:19:25.579Z,101601.09
2019-03-31T18:21:57.044Z,101604.27
2019-03-31T18:24:28.138Z,101611.03
2019-03-31T18:26:59.604Z,101475.22
2019-03-31T18:29:30.252Z,101617.87
2019-03-31T18:32:01.243Z,101629.39
2019-03-31T18:34:32.216Z,101635.28
2019-03-31T18:37:02.882Z,101636.97
2019-03-31T18:39:33.459Z,101641.98
2019-03-31T18:42:04.611Z,101645.20
2019-03-31T18:44:35.409Z,101651.96
2019-03-31T18:47:06.103Z,101656.87
2019-03-31T18:49:36.852Z,101661.85
2019-03-31T18:52:07.966Z,101663.33
2019-03-31T18:54:46.998Z,101668.70
2019-03-31T18:57:25.240Z,101675.55
2019-03-31T19:00:24.129Z,101678.30
2019-03-31T19:03:12.847Z,101683.67
2019-03-31T19:06:03.037Z,101685.97
2019-03-31T19:08:46.233Z,101696.40
2019-03-31T19:11:32.563Z,101699.70
2019-03-31T19:14:31.917Z,101697.59
2019-03-31T19:17:21.363Z,101706.21
2019-03-31T19:20:15.818Z,101713.45
2019-03-31T19:23:12.072Z,101714.50
2019-03-31T19:25:55.063Z,101726.98
2019-03-31T19:28:59.908Z,101726.33
2019-03-31T19:32:04.438Z,101735.80
2019-03-31T19:34:56.819Z,101737.80
2019-03-31T19:37:42.869Z,101737.05
2019-03-31T19:40:29.642Z,101745.98
2019-03-31T19:43:22.525Z,101742.53
2019-03-31T19:46:34.562Z,101742.73
2019-03-31T19:49:36.973Z,101746.42
2019-03-31T19:52:42.939Z,101755.47
2019-03-31T19:55:24.858Z,101751.98
2019-03-31T19:58:31.329Z,101758.66
2019-03-31T20:01:25.265Z,101759.95
2019-03-31T20:04:33.805Z,101770.13
2019-03-31T20:07:25.396Z,101771.45
2019-03-31T20:10:19.309Z,101769.03
2019-03-31T20:13:18.562Z,101768.20
2019-03-31T20:16:26.552Z,101776.20
2019-03-31T20:19:18.969Z,101783.80
2019-03-31T20:22:05.341Z,101784.81
2019-03-31T20:25:03.381Z,101784.47
2019-03-31T20:28:09.829Z,101783.63
2019-03-31T20:31:01.874Z,101791.67
2019-03-31T20:33:59.081Z,101798.00
2019-03-31T20:36:51.261Z,101812.33
2019-03-31T20:39:39.014Z,101807.64
2019-03-31T20:42:25.911Z,101811.77
2019-03-31T20:44:57.297Z,101815.42
2019-03-31T20:47:28.041Z,101817.34
2019-03-31T20:49:59.277Z,101812.55
2019-03-31T20:52:30.317Z,101819.25
2019-03-31T20:55:15.593Z,101820.70
2019-03-31T20:57:35.747Z,101831.41
2019-03-31T21:00:07.752Z,101834.61
2019-03-31T21:02:38.743Z,101839.49
2019-03-31T21:05:09.863Z,101839.07
2019-03-31T21:07:40.412Z,101850.59
2019-03-31T21:10:12.697Z,101850.62
2019-03-31T21:12:43.277Z,101853.27
2019-03-31T21:15:14.463Z,101855.05
2019-03-31T21:17:45.439Z,101858.61
2019-03-31T21:20:16.491Z,101864.42
2019-03-31T21:22:47.143Z,101862.64
2019-03-31T21:25:18.023Z,101861.80
2019-03-31T21:27:48.669Z,101868.94
2019-03-31T21:30:19.674Z,101866.77
2019-03-31T21:32:50.396Z,101870.38
2019-03-31T21:35:21.183Z,101880.96
2019-03-31T21:37:52.195Z,101880.96
2019-03-31T21:40:22.936Z,101884.63
2019-03-31T21:42:53.745Z,101889.91
2019-03-31T21:45:24.643Z,101890.39
2019-03-31T21:47:55.498Z,101900.99
2019-03-31T21:50:26.613Z,101898.02
2019-03-31T21:52:57.568Z,101897.20
2019-03-31T21:55:29.272Z,101906.53
2019-03-31T21:58:00.194Z,101903.45
2019-03-31T22:00:50.962Z,101906.22
2019-03-31T22:03:24.544Z,101910.19
2019-03-31T22:05:55.342Z,101918.63
2019-03-31T22:08:26.286Z,101919.13
2019-03-31T22:10:57.051Z,101920.45
2019-03-31T22:13:28.083Z,101924.42
2019-03-31T22:15:58.948Z,101920.91
2019-03-31T22:18:29.829Z,101927.50
2019-03-31T22:21:00.460Z,101929.73
2019-03-31T22:23:31.154Z,101931.05
2019-03-31T22:26:02.080Z,101937.20
2019-03-31T22:28:33.085Z,101938.11
2019-03-31T22:31:03.838Z,101945.55
2019-03-31T22:33:34.560Z,101940.23
2019-03-31T22:36:24.029Z,101941.08
2019-03-31T22:38:55.358Z,101942.88
2019-03-31T22:41:26.228Z,101946.44
2019-03-31T22:43:56.963Z,101946.01
2019-03-31T22:46:28.776Z,101947.81
2019-03-31T22:48:59.466Z,101948.61
2019-03-31T22:51:30.159Z,101950.45
2019-03-31T22:54:00.946Z,101953.11
2019-03-31T22:56:31.785Z,101961.09
2019-03-31T22:59:02.537Z,101963.23
2019-03-31T23:01:33.478Z,101967.22
2019-03-31T23:04:04.263Z,101969.94
2019-03-31T23:06:35.104Z,101969.48
2019-03-31T23:09:07.080Z,101973.92
2019-03-31T23:11:37.946Z,101977.04
2019-03-31T23:14:08.673Z,101981.47
2019-03-31T23:16:39.351Z,101982.37
2019-03-31T23:19:10.206Z,101992.51
2019-03-31T23:21:41.321Z,101989.00
2019-03-31T23:24:12.009Z,101993.59
2019-03-31T23:26:42.989Z,101996.71
2019-03-31T23:29:13.811Z,101998.42
2019-03-31T23:31:44.641Z,101995.41
2019-03-31T23:34:15.249Z,101998.98
2019-03-31T23:36:46.154Z,101995.94
2019-03-31T23:39:16.947Z,102003.50
2019-03-31T23:41:47.793Z,102010.14
2019-03-31T23:44:18.682Z,102025.14
2019-03-31T23:46:49.542Z,102020.30
2019-03-31T23:49:20.232Z,102024.27
2019-03-31T23:51:51.015Z,102024.27
2019-03-31T23:54:21.708Z,102026.48
2019-03-31T23:56:52.846Z,102031.33
2019-03-31T23:59:23.652Z,102028.23
